Time;durP1;ratioP1;P1;durP2;ratioP2;P2;SDS_P1;SDS_P2;PMS_P1;PMS_P2;Temp;Humidity;BMP_temperature;BMP_pressure;BME280_temperature;BME280_humidity;BME280_pressure;Samples;Min_cycle;Max_cycle;Signal;HPM_P1;HPM_P2
2021/10/24 00:00:36;;;;;;;10.40;8.05;;;;;;;22.22;55.37;101596.28;1791974;78;20884;-46
2021/10/24 00:03:04;;;;;;;8.98;7.00;;;;;;;22.20;55.38;101596.58;1787390;79;20964;-44
2021/10/24 00:05:30;;;;;;;9.58;6.78;;;;;;;22.21;55.36;101594.63;1802298;78;21452;-46
2021/10/24 00:07:56;;;;;;;10.03;7.17;;;;;;;22.21;55.36;101605.72;1797334;78;20908;-47
2021/10/24 00:10:22;;;;;;;11.30;7.15;;;;;;;22.20;55.36;101614.59;1800693;78;21295;-45
2021/10/24 00:12:48;;;;;;;9.28;7.15;;;;;;;22.19;55.36;101611.56;1800003;78;21055;-45
2021/10/24 00:15:14;;;;;;;10.68;7.58;;;;;;;22.20;55.36;101613.22;1795266;78;20899;-47
2021/10/24 00:17:40;;;;;;;11.03;7.80;;;;;;;22.20;55.35;101612.39;1787615;78;20911;-44
2021/10/24 00:20:07;;;;;;;8.85;6.40;;;;;;;22.19;55.36;101612.95;1800134;78;20915;-45
2021/10/24 00:22:33;;;;;;;9.63;7.37;;;;;;;22.21;55.34;101614.04;1790337;78;21134;-46
2021/10/24 00:24:59;;;;;;;10.43;6.80;;;;;;;22.20;55.35;101615.16;1803202;78;20995;-48
2021/10/24 00:27:26;;;;;;;9.33;6.70;;;;;;;22.20;55.35;101617.93;1848958;76;20978;-46
2021/10/24 00:29:52;;;;;;;8.45;6.58;;;;;;;22.19;55.33;101616.31;1827506;77;21095;-49
2021/10/24 00:32:18;;;;;;;8.68;6.62;;;;;;;22.19;55.33;101617.11;1810199;78;21559;-44
2021/10/24 00:34:44;;;;;;;9.08;7.35;;;;;;;22.19;55.32;101616.31;1790917;78;21220;-46
2021/10/24 00:37:10;;;;;;;10.03;6.85;;;;;;;22.18;55.33;101614.67;1794868;78;21673;-45
2021/10/24 00:39:36;;;;;;;9.45;6.47;;;;;;;22.18;55.31;101618.83;1810194;77;20857;-45
2021/10/24 00:42:03;;;;;;;8.23;6.50;;;;;;;22.18;55.34;101621.59;1795896;78;21642;-45
2021/10/24 00:44:32;;;;;;;9.65;7.00;;;;;;;22.18;55.32;101639.61;1800204;78;21116;-48
2021/10/24 00:47:01;;;;;;;8.45;6.33;;;;;;;22.17;55.33;101640.17;1786706;78;21151;-44
2021/10/24 00:49:27;;;;;;;8.45;6.58;;;;;;;22.18;55.32;101646.54;1803564;78;21460;-44
2021/10/24 00:51:54;;;;;;;8.95;6.72;;;;;;;22.18;55.31;101635.45;1797490;77;21051;-44
2021/10/24 00:54:22;;;;;;;9.28;6.95;;;;;;;22.18;55.32;101628.52;1793677;78;21045;-50
2021/10/24 00:56:49;;;;;;;8.95;6.90;;;;;;;22.16;55.31;101628.00;1803628;77;21065;-46
2021/10/24 00:59:18;;;;;;;9.03;6.55;;;;;;;22.16;55.31;101633.54;1799680;78;21451;-45
2021/10/24 01:01:44;;;;;;;9.45;6.42;;;;;;;22.16;55.31;101639.08;1805589;78;21077;-44
2021/10/24 01:04:11;;;;;;;8.38;6.25;;;;;;;22.15;55.30;101632.72;1803688;78;21054;-44
2021/10/24 01:06:39;;;;;;;8.28;6.25;;;;;;;22.16;55.29;101630.77;1802653;78;21077;-45
2021/10/24 01:09:09;;;;;;;8.83;7.20;;;;;;;22.15;55.28;101632.72;1787709;78;21002;-46
2021/10/24 01:11:35;;;;;;;7.95;5.92;;;;;;;22.15;55.30;101631.92;1794538;78;21960;-48
2021/10/24 01:14:01;;;;;;;8.08;6.33;;;;;;;22.15;55.29;101637.47;1802952;78;20867;-46
2021/10/24 01:16:27;;;;;;;7.83;6.20;;;;;;;22.15;55.28;101638.26;1795218;78;20903;-45
2021/10/24 01:18:53;;;;;;;8.63;6.20;;;;;;;22.14;55.28;101644.95;1778892;78;21098;-46
2021/10/24 01:21:20;;;;;;;7.40;6.08;;;;;;;22.14;55.28;101644.13;1800111;78;21394;-46
2021/10/24 01:23:46;;;;;;;8.50;6.40;;;;;;;22.14;55.28;101651.88;1813762;78;21132;-45
2021/10/24 01:26:12;;;;;;;7.87;5.72;;;;;;;22.14;55.28;101651.88;1791813;78;20888;-47
2021/10/24 01:28:38;;;;;;;8.38;6.10;;;;;;;22.12;55.25;101645.81;1797302;78;21540;-47
2021/10/24 01:31:04;;;;;;;8.43;6.08;;;;;;;22.14;55.27;101653.27;1801036;78;21024;-46
2021/10/24 01:33:30;;;;;;;8.43;6.42;;;;;;;22.13;55.27;101659.11;1804601;78;21689;-48
2021/10/24 01:36:01;;;;;;;8.48;5.65;;;;;;;22.13;55.28;101667.42;1807083;78;21173;-44
2021/10/24 01:38:27;;;;;;;8.33;5.97;;;;;;;22.13;55.27;101674.34;1796951;78;21045;-45
2021/10/24 01:40:55;;;;;;;7.83;6.00;;;;;;;22.13;55.27;101671.58;1813419;78;21054;-45
2021/10/24 01:43:22;;;;;;;8.90;6.55;;;;;;;22.12;55.25;101673.53;1815295;78;21143;-45
2021/10/24 01:45:48;;;;;;;8.05;5.58;;;;;;;22.12;55.23;101664.39;1800464;78;21503;-48
2021/10/24 01:48:16;;;;;;;8.13;5.95;;;;;;;22.13;55.24;101672.97;1802040;78;21288;-46
2021/10/24 01:50:45;;;;;;;7.67;6.10;;;;;;;22.12;55.24;101675.47;1810803;78;21088;-47
2021/10/24 01:53:11;;;;;;;6.87;5.55;;;;;;;22.12;55.22;101670.75;1801731;78;21038;-44
2021/10/24 01:55:37;;;;;;;7.47;5.83;;;;;;;22.10;55.22;101674.41;1810156;78;21050;-47
2021/10/24 01:58:03;;;;;;;7.35;5.50;;;;;;;22.11;55.21;101680.19;1817713;78;21478;-45
2021/10/24 02:00:30;;;;;;;8.50;5.75;;;;;;;22.10;55.21;101678.57;1813958;78;21192;-45
2021/10/24 02:02:56;;;;;;;9.05;5.70;;;;;;;22.10;55.19;101686.88;1815533;78;21073;-44
2021/10/24 02:05:22;;;;;;;7.95;6.15;;;;;;;22.11;55.19;101694.61;1799039;78;21512;-45
2021/10/24 02:07:48;;;;;;;8.03;6.17;;;;;;;22.11;55.18;101702.92;1797806;78;21061;-47
2021/10/24 02:10:15;;;;;;;7.25;5.60;;;;;;;22.11;55.18;101709.85;1797391;78;21037;-47
2021/10/24 02:12:42;;;;;;;7.80;5.87;;;;;;;22.10;55.17;101716.55;1813625;78;21128;-45
2021/10/24 02:15:09;;;;;;;8.93;5.45;;;;;;;22.10;55.15;101717.93;1808162;78;21105;-45
2021/10/24 02:17:35;;;;;;;7.80;5.75;;;;;;;22.10;55.17;101724.30;1809234;78;21062;-45
2021/10/24 02:20:01;;;;;;;6.53;5.50;;;;;;;22.10;55.16;101724.30;1801184;78;21443;-44
2021/10/24 02:22:27;;;;;;;8.60;5.65;;;;;;;22.10;55.12;101727.63;1802759;78;20905;-47
2021/10/24 02:24:53;;;;;;;7.58;5.17;;;;;;;22.09;55.12;101728.75;1800076;78;22649;-48
2021/10/24 02:27:19;;;;;;;7.92;5.87;;;;;;;22.09;55.12;101741.22;1802424;78;20977;-44
2021/10/24 02:29:45;;;;;;;6.28;4.92;;;;;;;22.09;55.11;101747.59;1808047;78;20871;-46
2021/10/24 02:32:12;;;;;;;6.87;5.40;;;;;;;22.09;55.11;101757.84;1801885;78;21032;-46
2021/10/24 02:34:38;;;;;;;8.10;5.50;;;;;;;22.09;55.09;101767.55;1805535;78;21047;-46
2021/10/24 02:37:04;;;;;;;7.42;5.60;;;;;;;22.09;55.05;101773.09;1812553;78;21549;-44
2021/10/24 02:39:30;;;;;;;9.53;5.92;;;;;;;22.09;55.04;101777.25;1810511;78;21092;-46
2021/10/24 02:41:56;;;;;;;7.37;5.37;;;;;;;22.09;55.03;101777.25;1812239;78;21384;-45
2021/10/24 02:44:23;;;;;;;6.20;5.15;;;;;;;22.08;55.00;101775.59;1807203;78;20891;-45
2021/10/24 02:46:50;;;;;;;6.83;5.17;;;;;;;22.08;54.98;101771.44;1798684;78;21124;-47
2021/10/24 02:49:17;;;;;;;6.92;5.25;;;;;;;22.07;54.97;101774.77;1818153;78;21113;-46
2021/10/24 02:51:43;;;;;;;9.63;5.78;;;;;;;22.07;54.93;101769.78;1808046;77;21092;-46
2021/10/24 02:54:09;;;;;;;6.80;5.22;;;;;;;22.07;54.93;101775.33;1802454;77;20982;-45
2021/10/24 02:56:35;;;;;;;7.58;5.62;;;;;;;22.07;54.91;101779.48;1810693;77;21034;-46
2021/10/24 02:59:01;;;;;;;8.15;5.22;;;;;;;22.07;54.92;101791.40;1803059;77;20990;-45
2021/10/24 03:01:27;;;;;;;7.05;5.17;;;;;;;22.07;54.90;101797.50;1804356;78;21199;-47
2021/10/24 03:03:53;;;;;;;7.83;5.22;;;;;;;22.06;54.88;101793.94;1811492;78;20945;-45
2021/10/24 03:06:19;;;;;;;6.72;5.50;;;;;;;22.07;54.85;101798.89;1821699;78;20891;-45
2021/10/24 03:08:45;;;;;;;6.08;4.83;;;;;;;22.07;54.85;101803.05;1809774;78;20951;-45
2021/10/24 03:11:11;;;;;;;7.40;5.20;;;;;;;22.07;54.80;101801.66;1801419;78;20969;-45
2021/10/24 03:13:37;;;;;;;6.25;4.95;;;;;;;22.09;54.76;101800.80;1815699;78;21693;-44
2021/10/24 03:16:04;;;;;;;6.70;4.83;;;;;;;22.08;54.74;101804.70;1799438;78;20965;-45
2021/10/24 03:18:30;;;;;;;6.45;4.95;;;;;;;22.09;54.71;101814.66;1797962;78;21565;-46
2021/10/24 03:20:56;;;;;;;6.83;4.83;;;;;;;22.10;54.69;101816.31;1825116;78;20891;-45
2021/10/24 03:23:22;;;;;;;7.12;4.92;;;;;;;22.11;54.70;101820.70;1810420;78;21748;-45
2021/10/24 03:25:49;;;;;;;7.35;4.83;;;;;;;22.13;54.71;101815.70;1804970;78;21047;-46
2021/10/24 03:28:15;;;;;;;7.08;5.03;;;;;;;22.13;54.72;101814.31;1810342;78;20981;-46
2021/10/24 03:30:41;;;;;;;5.37;4.30;;;;;;;22.14;54.72;101809.03;1817663;78;21119;-46
2021/10/24 03:33:08;;;;;;;5.33;4.05;;;;;;;22.15;54.74;101805.14;1782764;78;20996;-48
2021/10/24 03:35:33;;;;;;;4.62;3.80;;;;;;;22.15;54.76;101801.78;1809699;78;21034;-48
2021/10/24 03:37:59;;;;;;;4.75;3.20;;;;;;;22.17;54.76;101807.03;1786120;78;21282;-45
2021/10/24 03:40:26;;;;;;;4.25;3.02;;;;;;;22.17;54.79;101805.09;1773632;79;21034;-46
2021/10/24 03:42:52;;;;;;;3.95;2.87;;;;;;;22.19;54.81;101804.80;1848955;76;21076;-45
2021/10/24 03:45:18;;;;;;;4.33;3.17;;;;;;;22.19;54.82;101809.75;1847369;76;21011;-46
2021/10/24 03:47:44;;;;;;;4.30;3.00;;;;;;;22.21;54.83;101801.14;1844216;76;20886;-46
2021/10/24 03:50:10;;;;;;;4.85;3.33;;;;;;;22.22;54.86;101790.32;1854418;76;21880;-45
2021/10/24 03:52:36;;;;;;;4.78;3.37;;;;;;;22.23;54.87;101793.36;1848797;76;20928;-47
2021/10/24 03:55:04;;;;;;;4.72;3.40;;;;;;;22.24;54.87;101806.89;1836642;77;20849;-44
2021/10/24 03:57:30;;;;;;;4.58;3.40;;;;;;;22.25;54.88;101798.02;1802572;78;21488;-45
2021/10/24 03:59:56;;;;;;;4.10;3.33;;;;;;;22.26;54.91;101806.59;1847727;76;20899;-46
2021/10/24 04:02:22;;;;;;;5.12;3.30;;;;;;;22.26;54.91;101796.89;1851576;76;21191;-45
2021/10/24 04:04:48;;;;;;;5.15;3.37;;;;;;;22.29;54.94;101800.44;1846440;76;20957;-47
2021/10/24 04:07:14;;;;;;;4.55;3.20;;;;;;;22.27;54.93;101801.32;1846015;76;21051;-46
2021/10/24 04:09:40;;;;;;;3.85;3.12;;;;;;;22.30;54.96;101813.17;1850528;76;20873;-48
2021/10/24 04:12:06;;;;;;;5.33;3.67;;;;;;;22.30;54.96;101815.39;1845250;76;21013;-45
2021/10/24 04:14:32;;;;;;;4.40;3.20;;;;;;;22.31;54.96;101806.52;1844012;76;20995;-47
2021/10/24 04:16:58;;;;;;;5.28;3.17;;;;;;;22.31;54.96;101810.11;1846506;76;21598;-44
2021/10/24 04:19:25;;;;;;;4.15;3.27;;;;;;;22.33;54.99;101813.94;1849789;76;21103;-46
2021/10/24 04:21:51;;;;;;;5.25;3.22;;;;;;;22.33;54.98;101819.48;1855573;76;21480;-46
2021/10/24 04:24:17;;;;;;;5.17;3.45;;;;;;;22.35;54.98;101813.65;1845226;76;20894;-45
2021/10/24 04:26:43;;;;;;;4.47;3.40;;;;;;;22.34;54.98;101814.21;1843201;76;21970;-46
2021/10/24 04:29:10;;;;;;;5.58;3.70;;;;;;;22.35;54.99;101821.41;1849087;76;21101;-45
2021/10/24 04:31:36;;;;;;;5.83;3.72;;;;;;;22.35;54.98;101824.18;1846756;76;20952;-44
2021/10/24 04:34:02;;;;;;;4.92;3.67;;;;;;;22.37;54.98;101828.02;1853376;76;21069;-44
2021/10/24 04:36:28;;;;;;;4.87;3.20;;;;;;;22.36;54.99;101831.38;1825721;77;21099;-44
2021/10/24 04:38:54;;;;;;;3.98;2.75;;;;;;;22.37;54.98;101834.39;1826872;77;21497;-45
2021/10/24 04:41:21;;;;;;;4.62;3.33;;;;;;;22.37;54.99;101838.55;1820235;77;20862;-45
2021/10/24 04:43:47;;;;;;;4.97;3.40;;;;;;;22.37;54.98;101828.84;1800075;78;21473;-45
2021/10/24 04:46:13;;;;;;;5.80;3.52;;;;;;;22.38;54.97;101829.11;1802785;78;20889;-45
2021/10/24 04:48:39;;;;;;;5.37;3.85;;;;;;;22.38;54.97;101833.27;1801817;78;21552;-45
2021/10/24 04:51:05;;;;;;;4.95;3.45;;;;;;;22.38;54.96;101836.59;1786348;78;21083;-45
2021/10/24 04:53:31;;;;;;;4.85;3.67;;;;;;;22.39;54.97;101840.46;1807857;78;21378;-50
2021/10/24 04:55:57;;;;;;;5.08;3.70;;;;;;;22.39;54.95;101839.08;1796884;78;21136;-46
2021/10/24 04:58:23;;;;;;;5.28;3.80;;;;;;;22.38;54.94;101839.38;1781552;78;20942;-46
2021/10/24 05:00:49;;;;;;;5.42;3.70;;;;;;;22.38;54.91;101848.52;1800255;77;20985;-46
2021/10/24 05:03:15;;;;;;;4.92;3.80;;;;;;;22.37;54.90;101851.02;1795944;78;21138;-46
2021/10/24 05:05:41;;;;;;;5.70;3.85;;;;;;;22.38;54.90;101856.01;1803186;78;20976;-45
2021/10/24 05:08:07;;;;;;;4.65;3.33;;;;;;;22.38;54.90;101861.55;1794548;78;21093;-45
2021/10/24 05:10:33;;;;;;;5.20;3.58;;;;;;;22.38;54.88;101869.31;1803325;78;21519;-44
2021/10/24 05:12:59;;;;;;;5.80;3.58;;;;;;;22.38;54.85;101874.86;1812863;78;20911;-45
2021/10/24 05:15:25;;;;;;;4.53;3.27;;;;;;;22.37;54.84;101881.52;1793370;78;21578;-45
2021/10/24 05:17:51;;;;;;;4.92;3.45;;;;;;;22.38;54.82;101889.28;1817667;78;20950;-47
2021/10/24 05:20:17;;;;;;;5.37;3.72;;;;;;;22.38;54.81;101887.89;1815115;78;20999;-46
2021/10/24 05:22:43;;;;;;;4.85;3.77;;;;;;;22.38;54.77;101894.83;1804056;78;21456;-45
2021/10/24 05:25:10;;;;;;;4.80;3.45;;;;;;;22.37;54.76;101891.23;1815828;78;20879;-50
2021/10/24 05:27:36;;;;;;;4.75;3.20;;;;;;;22.37;54.72;101886.23;1807975;78;21069;-46
2021/10/24 05:30:02;;;;;;;5.92;3.58;;;;;;;22.37;54.70;101898.72;1812639;78;21007;-46
2021/10/24 05:32:29;;;;;;;4.75;3.00;;;;;;;22.37;54.69;101901.48;1819130;78;21061;-45
2021/10/24 05:34:55;;;;;;;3.92;3.00;;;;;;;22.36;54.66;101908.19;1802469;78;21000;-46
2021/10/24 05:37:21;;;;;;;4.75;3.20;;;;;;;22.36;54.64;101913.17;1814070;78;21181;-45
2021/10/24 05:39:47;;;;;;;4.25;3.15;;;;;;;22.37;54.62;101912.58;1802168;78;21174;-45
2021/10/24 05:42:14;;;;;;;5.15;3.40;;;;;;;22.37;54.57;101915.35;1797251;78;21586;-45
2021/10/24 05:44:40;;;;;;;3.85;2.92;;;;;;;22.38;54.56;101925.33;1809627;78;21149;-46
2021/10/24 05:47:06;;;;;;;5.78;3.47;;;;;;;22.36;54.51;101931.20;1806815;78;21597;-45
2021/10/24 05:49:32;;;;;;;4.75;2.95;;;;;;;22.36;54.49;101931.20;1809231;78;20899;-46
2021/10/24 05:51:58;;;;;;;5.03;3.45;;;;;;;22.36;54.48;101935.35;1801290;78;21964;-45
2021/10/24 05:54:24;;;;;;;4.95;3.62;;;;;;;22.36;54.47;101942.28;1802413;78;21108;-44
2021/10/24 05:56:50;;;;;;;4.30;3.20;;;;;;;22.36;54.43;101942.84;1812090;77;20870;-49
2021/10/24 05:59:16;;;;;;;4.28;3.30;;;;;;;22.36;54.41;101947.83;1814467;78;21578;-47
2021/10/24 06:01:42;;;;;;;4.55;3.10;;;;;;;22.35;54.37;101943.96;1805339;78;20879;-47
2021/10/24 06:04:08;;;;;;;4.50;3.30;;;;;;;22.35;54.33;101955.87;1823979;78;21240;-46
2021/10/24 06:06:34;;;;;;;3.90;3.00;;;;;;;22.35;54.32;101958.66;1803086;78;21133;-50
2021/10/24 06:09:01;;;;;;;4.58;3.70;;;;;;;22.34;54.30;101959.77;1808987;78;20973;-45
2021/10/24 06:11:33;;;;;;;3.92;2.75;;;;;;;22.34;54.26;101968.09;1807847;78;21077;-45
2021/10/24 06:13:56;;;;;;;4.55;3.10;;;;;;;22.34;54.23;101977.79;1816938;78;21046;-44
2021/10/24 06:16:22;;;;;;;4.55;3.40;;;;;;;22.33;54.21;101985.28;1803050;78;21322;-46
2021/10/24 06:18:49;;;;;;;4.20;3.22;;;;;;;22.32;54.19;101986.40;1819186;78;21506;-44
2021/10/24 06:21:15;;;;;;;4.28;2.87;;;;;;;22.33;54.17;101992.22;1794973;78;21046;-45
2021/10/24 06:23:41;;;;;;;4.95;3.12;;;;;;;22.33;54.14;102000.53;1845540;76;21489;-44
2021/10/24 06:26:07;;;;;;;4.33;3.02;;;;;;;22.32;54.11;102000.27;1845571;76;20948;-44
2021/10/24 06:28:33;;;;;;;3.83;3.10;;;;;;;22.33;54.06;102002.48;1848093;76;21621;-46
2021/10/24 06:30:59;;;;;;;4.00;2.90;;;;;;;22.33;54.07;102011.62;1801612;77;20987;-46
2021/10/24 06:33:25;;;;;;;5.08;2.83;;;;;;;22.32;54.02;102011.35;1801922;77;20998;-45
2021/10/24 06:35:51;;;;;;;4.15;2.95;;;;;;;22.32;53.99;102014.13;1812272;77;20900;-46
2021/10/24 06:38:19;;;;;;;4.20;3.00;;;;;;;22.33;53.97;102016.34;1806640;78;21456;-44
2021/10/24 06:40:45;;;;;;;5.42;3.00;;;;;;;22.32;53.93;102022.45;1803746;79;21054;-44
2021/10/24 06:43:11;;;;;;;4.75;3.17;;;;;;;22.31;53.87;102033.85;1842568;77;20866;-46
2021/10/24 06:45:37;;;;;;;4.53;3.08;;;;;;;22.31;53.88;102030.52;1832016;77;21047;-47
2021/10/24 06:48:04;;;;;;;5.00;3.20;;;;;;;22.30;53.84;102031.64;1834643;77;21486;-48
2021/10/24 06:50:30;;;;;;;4.58;2.90;;;;;;;22.30;53.83;102029.42;1800177;78;21038;-46
2021/10/24 06:52:57;;;;;;;4.65;3.25;;;;;;;22.31;53.79;102039.40;1793725;78;21499;-44
2021/10/24 06:55:23;;;;;;;4.30;3.10;;;;;;;22.31;53.77;102036.63;1795646;78;21026;-44
2021/10/24 06:57:52;;;;;;;4.85;3.10;;;;;;;22.30;53.73;102028.87;1792340;78;21085;-45
2021/10/24 07:00:20;;;;;;;3.58;2.72;;;;;;;22.30;53.71;102026.66;1790412;78;20986;-46
2021/10/24 07:02:48;;;;;;;3.92;2.80;;;;;;;22.30;53.69;102027.48;1813578;78;21500;-45
2021/10/24 07:05:14;;;;;;;4.05;2.72;;;;;;;22.30;53.65;102037.74;1802740;78;21295;-44
2021/10/24 07:07:40;;;;;;;4.40;3.12;;;;;;;22.30;53.62;102035.80;1798707;78;21124;-46
2021/10/24 07:10:08;;;;;;;4.25;2.90;;;;;;;22.29;53.60;102036.09;1799007;78;21030;-46
2021/10/24 07:12:34;;;;;;;4.05;2.92;;;;;;;22.29;53.56;102042.46;1813281;78;20998;-44
2021/10/24 07:15:00;;;;;;;4.08;2.72;;;;;;;22.28;53.56;102038.03;1802783;78;21073;-45
2021/10/24 07:17:26;;;;;;;4.20;3.00;;;;;;;22.29;53.52;102042.46;1818436;78;21648;-44
2021/10/24 07:19:52;;;;;;;4.83;3.12;;;;;;;22.29;53.47;102043.02;1814484;78;21179;-44
2021/10/24 07:22:18;;;;;;;4.08;2.83;;;;;;;;;;1803322;78;21623;-44
2021/10/24 07:24:44;;;;;;;3.67;2.67;;;;;;;22.29;53.42;102046.62;1801922;78;20994;-48
2021/10/24 07:27:10;;;;;;;3.33;2.50;;;;;;;;;;1803513;78;21745;-44
2021/10/24 07:29:36;;;;;;;4.40;2.60;;;;;;;22.28;53.34;102053.28;1786024;78;21023;-47
2021/10/24 07:32:02;;;;;;;4.40;2.70;;;;;;;22.29;53.31;102060.48;1802747;78;23718;-44
2021/10/24 07:34:28;;;;;;;3.92;2.45;;;;;;;22.28;53.29;102057.44;1806186;78;21512;-44
2021/10/24 07:36:54;;;;;;;4.62;2.77;;;;;;;22.28;53.26;102058.83;1799841;78;21138;-44
2021/10/24 07:39:20;;;;;;;4.03;2.95;;;;;;;;;;1802105;78;21564;-45
2021/10/24 07:41:46;;;;;;;4.33;2.80;;;;;;;22.28;53.22;102071.30;1800171;78;21094;-46
2021/10/24 07:44:14;;;;;;;3.30;2.67;;;;;;;22.27;53.20;102068.84;1798419;78;21626;-45
2021/10/24 07:46:40;;;;;;;4.20;2.72;;;;;;;22.27;53.18;102075.78;1803863;78;21508;-45
2021/10/24 07:49:06;;;;;;;3.65;2.45;;;;;;;22.26;53.14;102077.72;1788455;78;20974;-45
2021/10/24 07:51:32;;;;;;;4.45;2.67;;;;;;;22.27;53.12;102075.78;1783983;78;21709;-44
2021/10/24 07:53:58;;;;;;;4.10;2.70;;;;;;;22.26;53.10;102075.51;1785409;78;21217;-44
2021/10/24 07:56:25;;;;;;;4.42;2.60;;;;;;;22.26;53.07;102076.34;1805176;78;21470;-45
2021/10/24 07:58:51;;;;;;;4.90;2.77;;;;;;;22.27;53.04;102079.94;1787392;78;20911;-46
2021/10/24 08:01:17;;;;;;;3.67;2.77;;;;;;;22.26;53.03;102087.98;1793716;78;21448;-44
2021/10/24 08:03:44;;;;;;;4.05;2.70;;;;;;;22.25;52.99;102083.00;1803034;78;21076;-45
2021/10/24 08:06:10;;;;;;;3.70;2.45;;;;;;;22.26;52.98;102090.75;1786321;78;22048;-46
2021/10/24 08:08:37;;;;;;;3.33;2.37;;;;;;;22.24;52.96;102095.20;1804378;78;21783;-46
2021/10/24 08:11:04;;;;;;;5.00;2.72;;;;;;;22.25;52.96;102089.92;1788861;78;21011;-45
2021/10/24 08:13:30;;;;;;;4.25;2.80;;;;;;;22.26;52.93;102092.14;1806293;78;20985;-44
2021/10/24 08:15:56;;;;;;;3.42;2.55;;;;;;;22.25;52.91;102091.88;1803966;78;20896;-45
2021/10/24 08:18:22;;;;;;;4.35;2.52;;;;;;;22.24;52.90;102097.97;1797524;78;22091;-46
2021/10/24 08:20:48;;;;;;;4.80;2.58;;;;;;;22.25;52.89;102101.02;1814991;77;21030;-46
2021/10/24 08:23:16;;;;;;;4.10;2.58;;;;;;;22.25;52.86;102104.34;1810078;78;21073;-45
2021/10/24 08:25:42;;;;;;;5.05;2.65;;;;;;;22.24;52.83;102103.52;1798419;78;21042;-45
2021/10/24 08:28:08;;;;;;;3.90;2.62;;;;;;;22.25;52.80;102103.78;1819478;78;21057;-45
2021/10/24 08:33:00;;;;;;;3.83;2.47;;;;;;;22.27;52.77;102111.81;1843694;76;22469;-45
2021/10/24 08:35:27;;;;;;;3.95;2.58;;;;;;;22.23;52.77;102112.16;1806962;77;20974;-45
2021/10/24 08:37:53;;;;;;;4.58;2.45;;;;;;;22.23;52.73;102113.54;1813892;78;21119;-46
2021/10/24 08:40:19;;;;;;;4.78;2.75;;;;;;;22.23;52.72;102110.77;1801463;78;21670;-46
2021/10/24 08:42:51;;;;;;;3.90;2.52;;;;;;;22.22;52.69;102114.09;1806125;77;20925;-44
2021/10/24 08:45:14;;;;;;;3.85;2.60;;;;;;;22.23;52.67;102121.86;1806799;77;20935;-45
2021/10/24 08:47:41;;;;;;;4.35;2.08;;;;;;;22.23;52.65;102123.23;1806365;78;20903;-48
2021/10/24 08:50:09;;;;;;;3.62;2.70;;;;;;;22.22;52.60;102121.03;1810286;78;21471;-45
2021/10/24 08:52:38;;;;;;;3.22;2.30;;;;;;;22.22;52.58;102121.03;1810418;77;20977;-45
2021/10/24 08:55:07;;;;;;;4.08;2.40;;;;;;;22.23;52.58;102117.70;1807357;77;21067;-46
2021/10/24 08:57:33;;;;;;;3.87;2.62;;;;;;;22.22;52.53;102125.19;1799809;77;21109;-46
2021/10/24 09:00:00;;;;;;;3.70;2.65;;;;;;;22.21;52.52;102121.31;1803974;78;20903;-45
2021/10/24 09:02:46;;;;;;;3.12;2.47;;;;;;;22.20;52.50;102123.25;1796894;77;21445;-46
2021/10/24 09:05:34;;;;;;;3.58;2.17;;;;;;;22.21;52.48;102124.08;1786779;77;21083;-46
2021/10/24 09:08:00;;;;;;;3.25;2.33;;;;;;;22.20;52.46;102126.58;1810102;78;21518;-47
2021/10/24 09:10:43;;;;;;;3.65;2.50;;;;;;;22.20;52.43;102131.57;1802693;78;21061;-45
2021/10/24 09:13:10;;;;;;;3.05;2.40;;;;;;;22.19;52.41;102126.34;1808032;77;21570;-46
2021/10/24 09:16:04;;;;;;;3.83;2.67;;;;;;;22.18;52.40;102125.52;1805669;77;21220;-45
2021/10/24 09:18:39;;;;;;;3.37;2.17;;;;;;;22.19;52.35;102130.50;1813043;78;21452;-47
2021/10/24 09:21:22;;;;;;;3.67;2.52;;;;;;;22.17;52.35;102132.17;1804765;78;21007;-45
2021/10/24 09:23:52;;;;;;;3.05;2.20;;;;;;;22.17;52.33;102132.73;1802737;77;21551;-50
2021/10/24 09:26:29;;;;;;;3.45;2.22;;;;;;;22.16;52.30;102127.74;1800366;78;21065;-46
2021/10/24 09:29:06;;;;;;;4.25;2.33;;;;;;;22.16;52.29;102126.91;1804903;78;21968;-46
2021/10/24 09:31:40;;;;;;;4.15;2.40;;;;;;;22.16;52.30;102136.62;1801936;77;21050;-49
2021/10/24 09:34:24;;;;;;;3.65;2.30;;;;;;;22.15;52.30;102128.86;1805461;77;21057;-45
2021/10/24 09:36:58;;;;;;;3.27;2.30;;;;;;;22.13;52.29;102126.96;1781618;78;20942;-48
2021/10/24 09:39:37;;;;;;;3.55;2.00;;;;;;;22.13;52.27;102129.73;1738741;80;21501;-45
2021/10/24 09:42:22;;;;;;;3.17;2.45;;;;;;;22.14;52.30;102134.16;1776029;79;21159;-45
2021/10/24 09:45:13;;;;;;;3.92;2.20;;;;;;;22.14;52.26;102137.49;1773906;79;20984;-46
2021/10/24 09:47:47;;;;;;;4.05;2.33;;;;;;;22.14;52.25;102134.72;1770905;79;20978;-44
2021/10/24 09:50:35;;;;;;;3.58;2.25;;;;;;;22.13;52.24;102135.83;1782372;78;21019;-44
2021/10/24 09:53:26;;;;;;;6.20;2.50;;;;;;;22.11;52.24;102127.80;1768279;80;21098;-46
2021/10/24 09:56:01;;;;;;;3.33;2.40;;;;;;;22.11;52.21;102131.96;1739069;80;21516;-44
2021/10/24 09:58:34;;;;;;;4.83;2.40;;;;;;;22.10;52.24;102130.33;1771047;80;21079;-46
2021/10/24 10:01:02;;;;;;;2.98;2.30;;;;;;;22.09;52.22;102125.91;1771125;80;21427;-48
2021/10/24 10:03:28;;;;;;;3.00;2.17;;;;;;;22.09;52.21;102133.39;1774076;80;21040;-45
2021/10/24 10:05:57;;;;;;;2.95;2.10;;;;;;;22.10;52.22;102122.02;1769634;80;21075;-46
2021/10/24 10:08:23;;;;;;;4.10;2.37;;;;;;;22.10;52.22;102119.24;1767660;80;21331;-44
2021/10/24 10:11:02;;;;;;;3.15;2.08;;;;;;;22.11;52.21;102118.66;1770252;79;21616;-46
2021/10/24 10:13:28;;;;;;;4.10;2.10;;;;;;;22.11;52.19;102122.81;1768803;80;21030;-45
2021/10/24 10:15:54;;;;;;;3.62;2.22;;;;;;;22.12;52.19;102127.24;1769963;80;21462;-46
2021/10/24 10:18:22;;;;;;;3.35;2.08;;;;;;;22.11;52.18;102131.13;1777801;79;20925;-45
2021/10/24 10:20:50;;;;;;;3.55;2.30;;;;;;;22.12;52.17;102130.02;1770761;80;21234;-45
2021/10/24 10:23:25;;;;;;;3.85;2.40;;;;;;;22.11;52.14;102127.80;1773905;80;21055;-49
2021/10/24 10:25:51;;;;;;;2.87;1.98;;;;;;;22.11;52.14;102125.03;1737194;81;21076;-45
2021/10/24 10:28:45;;;;;;;3.42;2.33;;;;;;;22.11;52.13;102120.05;1774642;79;20896;-46
2021/10/24 10:31:16;;;;;;;3.22;2.08;;;;;;;22.11;52.12;102127.80;1765993;79;21129;-47
2021/10/24 10:33:56;;;;;;;;;;;;;;;22.12;52.08;102134.17;1774309;80;21287;-46
2021/10/24 10:36:22;;;;;;;3.12;2.15;;;;;;;22.11;52.07;102131.13;1776722;80;20203;-45
2021/10/24 10:38:48;;;;;;;3.80;2.30;;;;;;;22.09;52.11;102124.52;1747813;80;20882;-46
2021/10/24 10:41:15;;;;;;;3.45;2.00;;;;;;;22.10;52.12;102123.96;1772096;79;20866;-47
2021/10/24 10:44:03;;;;;;;4.20;2.20;;;;;;;22.10;52.08;102129.50;1773305;79;21043;-45
2021/10/24 10:46:30;;;;;;;3.60;2.20;;;;;;;22.09;52.06;102123.12;1763160;80;21131;-45
2021/10/24 10:48:57;;;;;;;3.50;2.33;;;;;;;22.10;52.04;102125.34;1768425;80;21538;-45
2021/10/24 10:51:26;;;;;;;3.60;2.40;;;;;;;22.09;52.02;102130.06;1765315;79;21407;-48
2021/10/24 10:54:02;;;;;;;2.92;2.22;;;;;;;22.10;52.00;102119.24;1774027;80;21508;-46
2021/10/24 10:56:43;;;;;;;3.52;2.02;;;;;;;22.11;51.98;102115.89;1772280;80;21606;-47
2021/10/24 10:59:17;;;;;;;3.75;2.30;;;;;;;22.11;51.97;102120.88;1773037;80;21466;-45
2021/10/24 11:01:43;;;;;;;4.25;2.17;;;;;;;22.10;51.94;102120.63;1773009;79;21084;-45
2021/10/24 11:04:16;;;;;;;4.08;2.10;;;;;;;22.12;51.94;102117.55;1768781;80;21686;-48
2021/10/24 11:06:51;;;;;;;3.00;2.12;;;;;;;22.13;51.91;102120.59;1770726;80;21027;-45
2021/10/24 11:09:39;;;;;;;3.25;2.10;;;;;;;22.13;51.91;102115.05;1773582;80;21027;-47
2021/10/24 11:12:09;;;;;;;5.05;2.30;;;;;;;22.12;51.89;102107.84;1772947;80;22132;-45
2021/10/24 11:14:42;;;;;;;4.25;2.27;;;;;;;22.13;51.86;102116.43;1770053;79;21076;-46
2021/10/24 11:17:08;;;;;;;3.33;2.02;;;;;;;22.12;51.85;102117.55;1770899;80;21446;-46
2021/10/24 11:19:43;;;;;;;2.92;2.00;;;;;;;22.13;51.86;102117.81;1741428;80;20945;-46
2021/10/24 11:22:17;;;;;;;2.67;1.95;;;;;;;22.12;51.83;102123.91;1770620;79;21084;-48
2021/10/24 11:24:52;;;;;;;3.37;2.12;;;;;;;22.13;51.81;102119.20;1771901;80;21625;-45
2021/10/24 11:27:24;;;;;;;3.65;2.37;;;;;;;22.13;51.78;102120.59;1770873;79;21142;-44
2021/10/24 11:30:04;;;;;;;4.45;2.12;;;;;;;22.12;51.77;102123.91;1769044;80;21047;-45
2021/10/24 11:32:35;;;;;;;3.02;1.90;;;;;;;22.12;51.75;102119.75;1774352;79;21183;-46